Latest Weather Observations for Rolleston Airport

IDQ60801

Issued at 11:02 pm EST Sunday 21 July 2019 (issued every 10 minutes, with the page automatically refreshed every 10 minutes)

About weather observations | Map of weather stations | Latest weather observations for QLD | Other Formats
Station Details ID: 035129 Name: ROLLESTON AIRPORT Lat: -24.46 Lon: 148.63 Height: 219.45 m
Data from the previous 72 hours. | See also: Recent months at Rolleston Airport
Date/Time
EST
Temp
°C
App
Temp
°C
Dew
Point
°C
Rel
Hum
%
Delta-T
°C
Wind Press
QNH
hPa
Press
MSL
hPa
Rain since
9am
mm
Dir  Spd
km/h
Gust
km/h
Spd
kts
Gust
kts
21/11:00pm 14.3 14.5 10.5 78 2.0 CALM 0 0 0 0 1019.1 1018.9 0.0
21/10:30pm 14.4 14.2 10.4 77 2.1 N 2 4 1 2 1019.1 1018.9 0.0
21/10:00pm 15.3 14.6 9.9 70 2.8 NE 4 6 2 3 1018.8 1018.6 0.0
21/09:30pm 16.8 16.0 11.1 69 3.1 NE 6 7 3 4 1018.6 1018.4 0.0
21/09:00pm 17.4 16.5 10.8 65 3.6 ENE 6 7 3 4 1018.5 1018.3 0.0
21/08:30pm 18.3 17.2 10.7 61 4.1 NE 7 11 4 6 1018.3 1018.1 0.0
21/08:00pm 19.1 17.6 10.4 57 4.7 ENE 9 13 5 7 1017.9 1017.7 0.0
21/07:30pm 20.1 17.8 10.5 54 5.3 ENE 13 17 7 9 1017.5 1017.3 0.0
21/07:00pm 20.4 18.4 10.2 52 5.6 NE 11 17 6 9 1017.3 1017.1 0.0
21/06:30pm 20.7 19.0 9.9 50 5.9 NE 9 11 5 6 1017.1 1016.9 0.0
21/06:00pm 20.8 19.5 10.0 50 5.9 ENE 7 9 4 5 1017.0 1016.8 0.0
21/05:30pm 20.8 19.6 9.7 49 6.0 NE 6 7 3 4 1016.5 1016.4 0.0
21/05:00pm 21.4 20.2 9.6 47 6.4 ENE 6 9 3 5 1016.3 1016.2 0.0
21/04:30pm 22.1 20.3 9.6 45 6.8 NE 9 19 5 10 1015.9 1015.8 0.0
21/04:00pm 22.6 20.8 9.4 43 7.2 ENE 9 15 5 8 1015.8 1015.7 0.0
21/03:30pm 23.9 22.3 8.7 38 8.2 N 7 13 4 7 1015.7 1015.6 0.0
21/03:00pm 24.2 21.4 8.6 37 8.4 N 13 24 7 13 1016.2 1016.1 0.0
21/02:30pm 23.7 21.3 8.6 38 8.1 NE 11 20 6 11 1016.4 1016.3 0.0
21/02:00pm 23.4 21.9 9.0 40 7.8 NE 7 17 4 9 1016.8 1016.6 0.0
21/01:30pm 23.3 21.5 9.3 41 7.6 ENE 9 15 5 8 1017.2 1017.0 0.0
21/01:00pm 22.4 20.6 7.8 39 7.7 ENE 7 17 4 9 1017.9 1017.7 0.0
21/12:30pm 22.6 21.1 8.3 40 7.6 NE 6 11 3 6 1018.5 1018.3 0.0
21/12:00pm 21.9 20.0 9.1 44 6.9 E 9 15 5 8 1019.1 1018.9 0.0
21/11:30am 21.8 20.3 9.3 45 6.8 NNW 7 15 4 8 1019.9 1019.8 0.0
21/11:00am 21.1 19.9 9.7 48 6.2 NE 6 13 3 7 1020.3 1020.2 0.0
21/10:30am 20.1 19.4 9.9 52 5.5 NE 4 7 2 4 1020.8 1020.7 0.0
21/10:00am 18.1 17.3 9.7 58 4.5 S 4 13 2 7 1021.3 1021.2 0.0
21/09:30am 15.4 13.9 8.4 63 3.6 SSE 6 9 3 5 1021.6 1021.4 0.0
21/09:00am 12.8 10.7 6.8 67 2.9 SSE 7 9 4 5 1021.5 1021.3 0.0
21/08:30am 10.3 8.0 5.7 73 2.1 S 7 11 4 6 1021.5 1021.3 0.0
21/08:00am 7.7 5.7 4.5 80 1.4 SSW 4 6 2 3 1021.6 1021.4 0.0
21/07:30am 5.7 4.3 3.7 87 0.9 CALM 0 0 0 0 1021.2 1021.1 0.0
21/07:00am 4.1 2.4 2.0 86 0.8 CALM 0 0 0 0 1021.1 1021.0 0.0
21/06:30am 5.0 2.8 3.3 89 0.7 S 4 7 2 4 1020.9 1020.8 0.0
21/06:00am 5.3 2.8 3.5 88 0.8 S 6 7 3 4 1020.8 1020.7 0.0
21/05:30am 4.8 2.0 2.2 83 1.1 SSE 6 7 3 4 1020.7 1020.6 0.0
21/05:00am 7.2 4.3 4.7 84 1.1 SE 9 9 5 5 1020.6 1020.5 0.0
21/04:30am 6.1 3.0 3.6 84 1.1 SSE 9 9 5 5 1020.6 1020.5 0.0
21/04:00am 7.0 4.4 3.3 77 1.6 SSE 6 6 3 3 1020.8 1020.7 0.0
21/03:30am 8.4 5.9 5.0 79 1.5 SE 7 7 4 4 1020.9 1020.8 0.0
21/03:00am 7.2 4.6 4.0 80 1.4 SSE 7 9 4 5 1021.1 1021.0 0.0
21/02:30am 7.4 6.0 3.6 77 1.6 CALM 0 6 0 3 1021.2 1021.1 0.0
21/02:00am 7.9 6.5 3.8 75 1.8 CALM 0 2 0 1 1021.3 1021.2 0.0
21/01:30am 7.6 5.0 3.3 74 1.8 WNW 6 9 3 5 1021.5 1021.3 0.0
21/01:00am 8.6 7.1 3.0 68 2.4 CALM 0 0 0 0 1021.2 1021.1 0.0
21/12:30am 8.7 7.1 2.7 66 2.6 CALM 0 0 0 0 1021.1 1021.0 0.0
21/12:00am 9.0 6.3 2.8 65 2.7 SSE 6 7 3 4 1021.1 1021.0 0.0
 
Date/Time
EST
Temp
°C
App
Temp
°C
Dew
Point
°C
Rel
Hum
%
Delta-T
°C
Wind Press
QNH
hPa
Press
MSL
hPa
Rain since
9am
mm
Dir  Spd
km/h
Gust
km/h
Spd
kts
Gust
kts
20/11:30pm 9.8 8.1 3.8 66 2.7 SSE 2 4 1 2 1021.1 1021.0 0.0
20/11:00pm 9.9 8.4 3.0 62 3.0 CALM 0 0 0 0 1021.5 1021.3 0.0
20/10:30pm 9.8 8.2 2.6 61 3.1 CALM 0 0 0 0 1021.5 1021.3 0.0
20/10:00pm 9.9 8.2 1.8 57 3.4 CALM 0 0 0 0 1021.5 1021.3 0.0
20/09:30pm 11.0 8.1 2.6 56 3.7 SE 7 9 4 5 1021.1 1021.0 0.0
20/09:00pm 10.7 8.3 2.3 56 3.6 SSE 4 6 2 3 1020.8 1020.7 0.0
20/08:30pm 11.6 8.9 2.9 55 3.8 SSE 6 7 3 4 1020.7 1020.6 0.0
20/08:00pm 13.0 10.6 2.0 47 4.8 SE 4 6 2 3 1020.4 1020.3 0.0
20/07:30pm 17.1 14.3 3.1 39 6.5 ESE 7 9 4 5 1020.3 1020.2 0.0
20/07:00pm 16.9 13.7 3.2 40 6.3 E 9 9 5 5 1020.1 1020.0 0.0
20/06:30pm 16.8 14.0 3.1 40 6.4 E 7 7 4 4 1019.9 1019.8 0.0
20/06:00pm 17.8 15.0 2.9 37 6.9 E 7 9 4 5 1019.7 1019.6 0.0
20/05:30pm 19.6 16.3 2.5 32 8.0 ENE 9 11 5 6 1019.6 1019.5 0.0
20/05:00pm 21.3 18.1 3.0 30 8.7 ENE 9 15 5 8 1019.6 1019.5 0.0
20/04:30pm 21.7 17.6 2.4 28 9.2 ENE 13 19 7 10 1019.5 1019.4 0.0
20/04:00pm 21.9 17.3 1.6 26 9.5 NE 15 26 8 14 1019.5 1019.4 0.0
20/03:30pm 22.4 19.0 2.0 26 9.7 NE 9 20 5 11 1019.5 1019.4 0.0
20/03:00pm 22.0 17.8 1.6 26 9.5 NE 13 24 7 13 1019.8 1019.7 0.0
20/02:30pm 22.1 17.4 1.2 25 9.7 NE 15 26 8 14 1020.0 1019.9 0.0
20/02:00pm 22.4 17.9 2.0 26 9.6 NE 15 33 8 18 1020.3 1020.2 0.0
20/01:30pm 21.9 16.9 1.6 26 9.5 ENE 17 30 9 16 1020.8 1020.7 0.0
20/01:00pm 21.2 16.5 1.0 26 9.3 ENE 15 26 8 14 1021.2 1021.1 0.0
20/12:30pm 20.9 15.6 1.7 28 8.9 NE 19 32 10 17 1022.0 1021.8 0.0
20/12:00pm 20.7 15.9 2.5 30 8.6 E 17 26 9 14 1022.5 1022.3 0.0
20/11:30am 20.1 14.7 2.5 31 8.3 ENE 20 30 11 16 1023.0 1022.8 0.0
20/11:00am 18.5 15.7 3.2 36 7.2 SSE 7 13 4 7 1023.4 1023.3 0.0
20/10:30am 17.2 15.1 3.8 41 6.3 S 4 6 2 3 1023.7 1023.6 0.0
20/10:00am 15.3 13.0 2.8 43 5.7 S 4 7 2 4 1024.1 1024.0 0.0
20/09:30am 13.0 10.3 2.6 49 4.6 S 6 7 3 4 1024.0 1023.9 0.0
20/09:00am 10.5 7.7 2.1 56 3.6 SSW 6 9 3 5 1023.8 1023.7 0.0
20/08:30am 8.7 5.6 0.4 56 3.4 S 6 7 3 4 1023.5 1023.4 0.0
20/08:00am 6.8 5.0 0.9 66 2.4 CALM 0 0 0 0 1023.1 1023.0 0.0
20/07:30am 4.1 2.2 0.8 79 1.3 CALM 0 0 0 0 1023.3 1023.2 0.0
20/07:00am 2.0 -0.1 -0.6 83 0.9 CALM 0 0 0 0 1023.0 1022.8 0.0
20/06:30am 2.1 -0.1 -1.2 79 1.2 CALM 0 0 0 0 1022.5 1022.3 0.0
20/06:00am 3.0 0.3 0.1 81 1.1 SSE 4 4 2 2 1022.2 1022.0 0.0
20/05:30am 1.9 -1.3 -0.5 84 0.9 SSE 6 7 3 4 1021.8 1021.6 0.0
20/05:00am 2.4 -0.9 0.1 85 0.9 S 7 9 4 5 1021.5 1021.3 0.0
20/04:30am 1.7 -2.1 -0.7 84 0.9 SSW 9 9 5 5 1021.2 1021.1 0.0
20/04:00am 2.9 0.9 -0.2 80 1.2 CALM 0 0 0 0 1021.3 1021.2 0.0
20/03:30am 4.0 2.1 0.5 78 1.4 CALM 0 0 0 0 1021.3 1021.2 0.0
20/03:00am 2.8 0.7 -0.5 79 1.2 CALM 0 0 0 0 1021.3 1021.2 0.0
20/02:30am 3.7 1.7 0.1 77 1.4 CALM 0 0 0 0 1021.5 1021.3 0.0
20/02:00am 3.6 0.8 -0.6 74 1.6 S 4 4 2 2 1021.5 1021.3 0.0
20/01:30am 3.4 0.5 -0.8 74 1.6 S 4 4 2 2 1021.6 1021.4 0.0
20/01:00am 4.4 1.5 -1.0 68 2.0 S 4 6 2 3 1021.6 1021.4 0.0
20/12:30am 5.7 3.0 0.1 67 2.2 S 4 6 2 3 1021.5 1021.3 0.0
20/12:00am 5.9 3.9 0.0 66 2.3 CALM 0 0 0 0 1021.6 1021.4 0.0
 
Date/Time
EST
Temp
°C
App
Temp
°C
Dew
Point
°C
Rel
Hum
%
Delta-T
°C
Wind Press
QNH
hPa
Press
MSL
hPa
Rain since
9am
mm
Dir  Spd
km/h
Gust
km/h
Spd
kts
Gust
kts
19/11:30pm 6.1 4.0 -0.6 62 2.6 CALM 0 0 0 0 1021.5 1021.3 0.0
19/11:00pm 6.4 4.3 -0.8 60 2.8 CALM 0 4 0 2 1021.5 1021.3 0.0
19/10:30pm 8.2 4.9 -1.1 52 3.6 SSE 6 7 3 4 1021.5 1021.3 0.0
19/10:00pm 9.8 6.4 -0.4 49 4.1 SSE 7 9 4 5 1021.6 1021.4 0.0
19/09:30pm 10.1 6.7 -0.7 47 4.3 SSE 7 7 4 4 1021.5 1021.3 0.0
19/09:00pm 11.2 7.8 -0.6 44 4.8 SSE 7 7 4 4 1021.2 1021.1 0.0
19/08:30pm 11.7 8.5 -0.8 42 5.1 SSE 6 6 3 3 1020.9 1020.8 0.0
19/08:00pm 12.1 8.8 -1.1 40 5.3 SSE 6 6 3 3 1020.7 1020.6 0.0
19/07:30pm 14.4 10.2 -0.8 35 6.3 ESE 11 13 6 7 1020.5 1020.4 0.0
19/07:00pm 14.2 10.5 0.1 38 6.0 ESE 9 13 5 7 1020.2 1020.1 0.0
19/06:30pm 15.3 12.5 -0.1 35 6.6 S 4 6 2 3 1019.7 1019.6 0.0
19/06:00pm 15.9 13.5 -0.3 33 6.9 SSW 2 4 1 2 1019.5 1019.4 0.0
19/05:30pm 17.9 15.1 -0.4 29 8.0 S 4 6 2 3 1019.2 1019.0 0.0
19/05:00pm 19.3 16.0 -0.1 27 8.6 SSW 7 13 4 7 1019.1 1018.9 0.0
19/04:30pm 20.2 16.4 -0.4 25 9.1 SSW 9 15 5 8 1019.2 1019.0 0.0
19/04:00pm 20.2 16.3 -1.6 23 9.4 S 9 17 5 9 1018.9 1018.7 0.0
19/03:30pm 20.0 16.1 -1.7 23 9.4 S 9 20 5 11 1019.1 1018.9 0.0
19/03:00pm 20.3 15.6 -1.5 23 9.5 S 13 19 7 10 1019.0 1018.8 0.0
19/02:30pm 20.0 16.1 -1.7 23 9.4 SSW 9 22 5 12 1019.1 1018.9 0.0
19/02:00pm 19.9 15.1 -2.4 22 9.5 S 13 22 7 12 1019.2 1019.0 0.0
19/01:30pm 19.3 14.0 -3.5 21 9.4 SSE 15 22 8 12 1019.4 1019.3 0.0
19/01:00pm 19.4 14.6 -2.8 22 9.3 SSE 13 22 7 12 1019.9 1019.8 0.0
19/12:30pm 18.7 13.8 -0.2 28 8.3 S 15 22 8 12 1020.5 1020.4 0.0
19/12:00pm 17.9 13.8 0.1 30 7.8 SSE 11 19 6 10 1021.0 1020.9 0.0
19/11:30am 17.0 13.1 1.0 34 7.1 S 11 17 6 9 1021.7 1021.5 0.0
19/11:00am 16.7 12.6 2.0 37 6.6 SSE 13 22 7 12 1022.1 1021.9 0.0
19/10:30am 16.0 11.4 1.7 38 6.4 SSE 15 24 8 13 1022.6 1022.4 0.0
19/10:00am 15.0 11.7 2.5 43 5.6 SSE 9 19 5 10 1022.7 1022.5 0.0
19/09:30am 12.8 10.0 2.9 51 4.4 S 7 13 4 7 1022.7 1022.5 0.0
19/09:00am 9.5 6.6 1.4 57 3.4 SSW 6 9 3 5 1022.6 1022.4 0.0
19/08:30am 8.0 6.2 1.4 63 2.7 CALM 0 0 0 0 1022.4 1022.2 0.0
19/08:00am 4.6 2.8 1.1 78 1.4 CALM 0 0 0 0 1022.2 1022.0 0.0
19/07:30am 2.5 0.5 -0.1 83 1.0 CALM 0 0 0 0 1022.0 1021.8 0.0
19/07:00am 2.8 0.1 0.5 85 0.9 SSE 4 4 2 2 1021.6 1021.4 0.0
19/06:30am 1.6 -0.5 -0.6 85 0.8 CALM 0 0 0 0 1021.2 1021.1 0.0
19/06:00am 1.7 -0.5 -1.2 81 1.0 CALM 0 2 0 1 1021.0 1020.9 0.0
19/05:30am 2.8 -0.4 -0.5 79 1.2 SSE 6 7 3 4 1020.8 1020.7 0.0
19/05:00am 2.9 0.1 -0.4 79 1.2 SSE 4 6 2 3 1020.7 1020.6 0.0
19/04:30am 2.6 -0.3 -0.8 78 1.2 SSE 4 4 2 2 1020.6 1020.5 0.0
19/04:00am 3.6 0.3 -1.0 72 1.7 SE 6 7 3 4 1020.5 1020.4 0.0
19/03:30am 4.6 1.2 -0.4 70 1.9 SE 7 9 4 5 1020.3 1020.2 0.0
19/03:00am 4.8 1.5 0.0 71 1.8 SSE 7 9 4 5 1020.4 1020.3 0.0
19/02:30am 4.3 0.9 -0.5 71 1.8 SSE 7 9 4 5 1020.5 1020.4 0.0
19/02:00am 5.5 2.4 -0.1 67 2.2 SSE 6 7 3 4 1020.7 1020.6 0.0
19/01:30am 6.4 2.8 0.3 65 2.4 SE 9 9 5 5 1020.6 1020.5 0.0
19/01:00am 6.0 3.3 0.3 67 2.2 SSW 4 6 2 3 1020.9 1020.8 0.0
19/12:30am 6.2 3.4 -0.3 63 2.5 SSE 4 6 2 3 1021.0 1020.9 0.0
19/12:00am 6.8 4.1 0.0 62 2.7 ESE 4 6 2 3 1021.0 1020.9 0.0
 
Date/Time
EST
Temp
°C
App
Temp
°C
Dew
Point
°C
Rel
Hum
%
Delta-T
°C
Wind Press
QNH
hPa
Press
MSL
hPa
Rain since
9am
mm
Dir  Spd
km/h
Gust
km/h
Spd
kts
Gust
kts
18/11:30pm 7.5 4.4 0.0 59 3.0 SSE 6 7 3 4 1020.9 1020.8 0.0

Other formats

Comma delimited format used in spreadsheet applications
http://www.bom.gov.au/fwo/IDQ60801/IDQ60801.94396.axf

JavaScript Object Notation format (JSON) in row-major order
http://www.bom.gov.au/fwo/IDQ60801/IDQ60801.94396.json

Data quality

Most of these data are generated automatically and are frequently updated. Quality checks on data are not normally performed. It is possible for incorrect values to appear. Refer to information at About Latest Weather Observations and please check the disclaimer before using these data.